createdAt,value
2017-11-23T00:02:09.280Z,3.70
2017-11-23T00:04:36.785Z,3.40
2017-11-23T00:07:05.042Z,3.50
2017-11-23T00:09:32.529Z,3.70
2017-11-23T00:12:00.770Z,3.83
2017-11-23T00:14:28.311Z,4.03
2017-11-23T00:16:55.797Z,3.77
2017-11-23T00:19:24.072Z,3.70
2017-11-23T00:21:52.321Z,3.80
2017-11-23T00:24:19.807Z,3.27
2017-11-23T00:26:47.270Z,3.70
2017-11-23T00:29:14.747Z,3.53
2017-11-23T00:31:42.993Z,3.63
2017-11-23T00:34:10.488Z,3.97
2017-11-23T00:36:37.951Z,3.33
2017-11-23T00:39:05.419Z,4.20
2017-11-23T00:41:32.874Z,4.50
2017-11-23T00:44:00.536Z,3.77
2017-11-23T00:46:28.022Z,3.67
2017-11-23T00:48:55.520Z,3.67
2017-11-23T00:51:23.771Z,4.20
2017-11-23T00:53:52.036Z,3.70
2017-11-23T00:56:19.517Z,4.40
2017-11-23T00:58:47.793Z,3.60
2017-11-23T01:01:29.321Z,4.23
2017-11-23T01:03:56.812Z,3.77
2017-11-23T01:06:24.269Z,4.40
2017-11-23T01:08:51.759Z,3.93
2017-11-23T01:11:20.031Z,4.10
2017-11-23T01:13:47.506Z,3.80
2017-11-23T01:16:15.744Z,3.73
2017-11-23T01:18:43.225Z,4.30
2017-11-23T01:21:10.694Z,3.60
2017-11-23T01:23:38.953Z,4.40
2017-11-23T01:26:07.191Z,3.90
2017-11-23T01:28:34.676Z,4.22
2017-11-23T01:31:02.168Z,4.13
2017-11-23T01:33:30.418Z,3.40
2017-11-23T01:35:57.884Z,3.23
2017-11-23T01:38:27.039Z,3.77
2017-11-23T01:40:54.518Z,4.03
2017-11-23T01:43:22.021Z,4.17
2017-11-23T01:45:49.514Z,4.30
2017-11-23T01:48:16.988Z,4.67
2017-11-23T01:50:44.480Z,4.07
2017-11-23T01:53:12.717Z,3.77
2017-11-23T01:55:40.222Z,3.97
2017-11-23T01:58:08.463Z,4.20
2017-11-23T02:00:37.466Z,5.30
2017-11-23T02:03:06.450Z,4.97
2017-11-23T02:05:33.938Z,4.90
2017-11-23T02:08:02.170Z,4.40
2017-11-23T02:10:29.666Z,4.00
2017-11-23T02:12:57.923Z,4.00
2017-11-23T02:15:25.406Z,4.13
2017-11-23T02:17:53.647Z,4.70
2017-11-23T02:20:22.635Z,3.90
2017-11-23T02:22:50.121Z,4.60
2017-11-23T02:25:17.613Z,4.43
2017-11-23T02:27:45.076Z,4.50
2017-11-23T02:30:12.567Z,4.43
2017-11-23T02:32:40.041Z,3.77
2017-11-23T02:35:07.538Z,4.87
2017-11-23T02:37:34.998Z,4.50
2017-11-23T02:40:02.486Z,4.50
2017-11-23T02:42:29.946Z,3.40
2017-11-23T02:44:57.504Z,3.50
2017-11-23T02:47:24.984Z,3.70
2017-11-23T02:49:52.501Z,3.73
2017-11-23T02:52:19.989Z,3.70
2017-11-23T02:54:47.488Z,3.77
2017-11-23T02:57:15.765Z,3.57
2017-11-23T02:59:43.240Z,4.77
2017-11-23T03:02:10.720Z,4.90
2017-11-23T03:04:38.194Z,4.77
2017-11-23T03:07:05.693Z,4.33
2017-11-23T03:09:33.925Z,5.00
2017-11-23T03:12:01.399Z,5.17
2017-11-23T03:14:28.883Z,4.50
2017-11-23T03:16:57.148Z,4.30
2017-11-23T03:19:25.390Z,4.53
2017-11-23T03:21:52.874Z,5.20
2017-11-23T03:24:21.158Z,4.77
2017-11-23T03:26:49.419Z,4.70
2017-11-23T03:29:18.422Z,5.35
2017-11-23T03:31:45.927Z,4.60
2017-11-23T03:34:13.389Z,4.37
2017-11-23T03:36:40.880Z,5.20
2017-11-23T03:39:08.361Z,5.00
2017-11-23T03:41:36.624Z,5.73
2017-11-23T03:44:04.892Z,6.60
2017-11-23T03:46:32.374Z,5.80
2017-11-23T03:49:00.644Z,4.93
2017-11-23T03:51:28.913Z,5.78
2017-11-23T03:53:56.376Z,5.63
2017-11-23T03:56:24.622Z,4.93
2017-11-23T03:58:52.092Z,4.97
2017-11-23T04:01:19.574Z,4.50
2017-11-23T04:03:47.829Z,4.53
2017-11-23T04:06:15.407Z,5.00
2017-11-23T04:08:43.654Z,4.70
2017-11-23T04:11:11.142Z,4.73
2017-11-23T04:13:39.398Z,4.45
2017-11-23T04:16:06.875Z,5.20
2017-11-23T04:18:35.121Z,5.10
2017-11-23T04:21:02.584Z,5.10
2017-11-23T04:23:30.095Z,5.32
2017-11-23T04:25:57.577Z,5.20
2017-11-23T04:28:25.073Z,5.67
2017-11-23T04:30:52.542Z,4.80
2017-11-23T04:33:20.785Z,5.20
2017-11-23T04:35:48.268Z,5.63
2017-11-23T04:38:15.754Z,5.50
2017-11-23T04:40:43.236Z,5.07
2017-11-23T04:43:10.726Z,5.13
2017-11-23T04:45:38.960Z,4.80
2017-11-23T04:48:06.443Z,6.10
2017-11-23T04:50:33.917Z,6.20
2017-11-23T04:53:01.399Z,6.60
2017-11-23T04:55:29.632Z,6.33
2017-11-23T04:57:57.120Z,5.60
2017-11-23T05:00:24.593Z,5.97
2017-11-23T05:02:52.860Z,5.83
2017-11-23T05:05:21.117Z,5.10
2017-11-23T05:07:48.598Z,5.30
2017-11-23T05:10:16.825Z,4.90
2017-11-23T05:12:44.328Z,5.63
2017-11-23T05:15:12.563Z,5.67
2017-11-23T05:17:40.045Z,5.23
2017-11-23T05:20:07.530Z,5.47
2017-11-23T05:22:35.042Z,6.20
2017-11-23T05:25:02.529Z,5.83
2017-11-23T05:27:31.104Z,5.60
2017-11-23T05:29:58.613Z,5.87
2017-11-23T05:32:26.081Z,5.40
2017-11-23T05:34:53.587Z,5.77
2017-11-23T05:37:21.064Z,9.20
2017-11-23T05:39:49.321Z,8.50
2017-11-23T05:42:17.572Z,6.23
2017-11-23T05:44:45.085Z,6.20
2017-11-23T05:47:12.575Z,6.47
2017-11-23T05:49:40.080Z,6.37
2017-11-23T05:52:08.323Z,5.43
2017-11-23T05:54:35.799Z,5.13
2017-11-23T05:57:04.061Z,5.50
2017-11-23T05:59:31.559Z,5.60
2017-11-23T06:01:59.813Z,5.60
2017-11-23T06:04:27.292Z,4.50
2017-11-23T06:06:55.542Z,5.73
2017-11-23T06:09:23.028Z,4.83
2017-11-23T06:11:51.285Z,5.10
2017-11-23T06:14:18.789Z,5.60
2017-11-23T06:16:46.281Z,5.40
2017-11-23T06:19:13.778Z,5.13
2017-11-23T06:21:41.261Z,5.30
2017-11-23T06:24:08.755Z,4.77
2017-11-23T06:26:36.228Z,5.00
2017-11-23T06:29:03.709Z,5.37
2017-11-23T06:31:31.967Z,5.23
2017-11-23T06:34:00.220Z,5.13
2017-11-23T06:36:27.691Z,5.47
2017-11-23T06:38:56.679Z,5.60
2017-11-23T06:41:24.153Z,6.23
2017-11-23T06:43:52.397Z,5.87
2017-11-23T06:46:21.203Z,5.97
2017-11-23T06:48:48.672Z,6.10
2017-11-23T06:51:16.932Z,6.37
2017-11-23T06:53:44.406Z,6.13
2017-11-23T06:56:12.645Z,5.63
2017-11-23T06:58:40.118Z,5.37
2017-11-23T07:01:08.455Z,5.47
2017-11-23T07:03:35.931Z,6.07
2017-11-23T07:06:03.451Z,5.83
2017-11-23T07:08:30.914Z,5.60
2017-11-23T07:13:52.050Z,5.77
2017-11-23T07:16:19.544Z,5.67
2017-11-23T07:18:47.037Z,5.45
2017-11-23T07:21:14.540Z,5.63
2017-11-23T07:23:42.026Z,5.17
2017-11-23T07:26:09.514Z,5.17
2017-11-23T07:28:37.767Z,6.03
2017-11-23T07:31:05.255Z,6.33
2017-11-23T07:33:33.489Z,6.77
2017-11-23T07:36:00.976Z,7.00
2017-11-23T07:38:29.210Z,6.20
2017-11-23T07:40:56.697Z,6.53
2017-11-23T07:43:24.166Z,6.80
2017-11-23T07:45:52.433Z,9.10
2017-11-23T07:48:19.912Z,7.77
2017-11-23T07:50:48.200Z,6.80
2017-11-23T07:53:15.689Z,6.93
2017-11-23T07:55:43.175Z,7.07
2017-11-23T07:58:11.424Z,7.17
2017-11-23T08:00:38.915Z,7.27
2017-11-23T08:03:06.419Z,8.07
2017-11-23T08:05:33.913Z,8.03
2017-11-23T08:08:01.379Z,8.07
2017-11-23T08:10:28.878Z,7.90
2017-11-23T08:12:57.289Z,9.93
2017-11-23T08:15:38.411Z,9.73
2017-11-23T08:18:05.887Z,8.50
2017-11-23T08:20:34.131Z,7.20
2017-11-23T08:23:01.630Z,7.18
2017-11-23T08:25:29.092Z,7.43
2017-11-23T08:27:56.582Z,7.27
2017-11-23T08:30:24.058Z,7.23
2017-11-23T08:32:51.643Z,7.57
2017-11-23T08:35:20.023Z,8.32
2017-11-23T08:37:48.293Z,7.53
2017-11-23T08:40:15.762Z,6.73
2017-11-23T08:42:44.024Z,6.00
2017-11-23T08:45:12.278Z,6.10
2017-11-23T08:47:39.785Z,6.67
2017-11-23T08:50:07.279Z,7.30
2017-11-23T08:52:34.776Z,6.43
2017-11-23T08:55:03.161Z,6.10
2017-11-23T08:57:31.421Z,6.20
2017-11-23T08:59:58.915Z,7.20
2017-11-23T09:02:26.416Z,6.60
2017-11-23T09:04:53.896Z,6.37
2017-11-23T09:07:21.420Z,7.30
2017-11-23T09:09:48.892Z,6.60
2017-11-23T09:12:16.357Z,7.97
2017-11-23T09:14:43.829Z,8.40
2017-11-23T09:17:12.349Z,8.37
2017-11-23T09:19:39.839Z,7.50
2017-11-23T09:22:07.312Z,7.83
2017-11-23T09:24:34.794Z,7.13
2017-11-23T09:27:03.051Z,6.77
2017-11-23T09:29:30.533Z,7.60
2017-11-23T09:31:58.803Z,7.30
2017-11-23T09:34:26.366Z,6.83
2017-11-23T09:36:54.647Z,7.50
2017-11-23T09:39:23.813Z,7.70
2017-11-23T09:41:51.293Z,7.13
2017-11-23T09:44:19.531Z,7.00
2017-11-23T09:46:47.035Z,7.80
2017-11-23T09:49:15.304Z,8.00
2017-11-23T09:54:36.715Z,7.70
2017-11-23T09:57:04.228Z,7.73
2017-11-23T09:59:31.735Z,7.43
2017-11-23T10:01:59.225Z,8.03
2017-11-23T10:04:27.460Z,7.63
2017-11-23T10:06:55.626Z,8.10
2017-11-23T10:09:24.140Z,8.93
2017-11-23T10:11:51.646Z,7.90
2017-11-23T10:14:24.900Z,8.33
2017-11-23T10:16:53.139Z,7.80
2017-11-23T10:19:20.644Z,8.07
2017-11-23T10:21:48.129Z,7.80
2017-11-23T10:24:15.624Z,8.47
2017-11-23T10:26:44.839Z,7.47
2017-11-23T10:29:12.357Z,8.50
2017-11-23T10:31:40.289Z,7.93
2017-11-23T10:34:08.568Z,9.23
2017-11-23T10:36:36.820Z,6.80
2017-11-23T10:39:04.324Z,6.87
2017-11-23T10:41:31.813Z,7.83
2017-11-23T10:43:59.324Z,7.35
2017-11-23T10:46:26.864Z,7.10
2017-11-23T10:48:55.139Z,7.40
2017-11-23T10:51:23.433Z,6.80
2017-11-23T10:53:51.714Z,7.13
2017-11-23T10:56:19.558Z,7.00
2017-11-23T10:58:47.814Z,7.70
2017-11-23T11:01:15.306Z,8.10
2017-11-23T11:03:42.797Z,9.53
2017-11-23T11:06:11.604Z,9.80
2017-11-23T11:08:39.211Z,8.97
2017-11-23T11:11:07.456Z,8.53
2017-11-23T11:13:34.939Z,8.40
2017-11-23T11:16:03.222Z,9.23
2017-11-23T11:18:31.455Z,8.33
2017-11-23T11:20:59.175Z,7.40
2017-11-23T11:23:26.653Z,7.23
2017-11-23T11:25:54.137Z,6.43
2017-11-23T11:28:21.616Z,6.70
2017-11-23T11:30:49.887Z,6.40
2017-11-23T11:33:18.127Z,5.90
2017-11-23T11:35:46.378Z,7.17
2017-11-23T11:38:13.870Z,6.05
2017-11-23T11:40:41.367Z,6.23
2017-11-23T11:43:09.616Z,6.20
2017-11-23T11:45:37.108Z,5.77
2017-11-23T11:48:05.353Z,5.53
2017-11-23T11:50:32.830Z,5.30
2017-11-23T11:53:01.066Z,6.10
2017-11-23T11:55:28.571Z,5.17
2017-11-23T11:57:56.814Z,6.30
2017-11-23T12:00:24.291Z,5.30
2017-11-23T12:02:51.768Z,5.40
2017-11-23T12:05:20.064Z,9.70
2017-11-23T12:07:47.543Z,5.13
2017-11-23T12:10:15.054Z,5.33
2017-11-23T12:12:43.302Z,4.80
2017-11-23T12:15:36.055Z,5.50
2017-11-23T12:18:15.523Z,5.57
2017-11-23T12:20:55.711Z,6.23
2017-11-23T12:23:35.135Z,5.50
2017-11-23T12:26:02.638Z,5.53
2017-11-23T12:28:42.045Z,5.63
2017-11-23T12:31:09.557Z,5.13
2017-11-23T12:33:37.135Z,5.03
2017-11-23T12:36:05.399Z,4.87
2017-11-23T12:38:33.647Z,5.00
2017-11-23T12:41:01.125Z,5.60
2017-11-23T12:43:29.401Z,4.37
2017-11-23T12:45:56.902Z,5.00
2017-11-23T12:48:24.400Z,4.93
2017-11-23T12:50:51.901Z,4.53
2017-11-23T12:53:19.392Z,4.30
2017-11-23T12:55:46.903Z,4.43
2017-11-23T12:58:15.156Z,4.00
2017-11-23T13:00:42.661Z,4.93
2017-11-23T13:03:10.125Z,4.20
2017-11-23T13:05:37.640Z,4.00
2017-11-23T13:08:05.911Z,3.90
2017-11-23T13:10:33.393Z,3.77
2017-11-23T13:13:01.749Z,4.00
2017-11-23T13:15:29.252Z,3.43
2017-11-23T13:17:56.733Z,4.47
2017-11-23T13:20:24.215Z,3.70
2017-11-23T13:22:52.480Z,3.30
2017-11-23T13:25:19.953Z,4.10
2017-11-23T13:27:47.471Z,3.60
2017-11-23T13:30:14.939Z,3.63
2017-11-23T13:32:42.445Z,5.33
2017-11-23T13:35:10.719Z,5.53
2017-11-23T13:37:39.092Z,4.23
2017-11-23T13:40:06.564Z,3.90
2017-11-23T13:42:34.822Z,2.77
2017-11-23T13:45:03.088Z,4.53
2017-11-23T13:47:30.571Z,3.60
2017-11-23T13:49:58.820Z,5.40
2017-11-23T13:52:26.306Z,4.00
2017-11-23T13:54:54.552Z,3.10
2017-11-23T13:57:23.544Z,3.37
2017-11-23T13:59:51.048Z,3.40
2017-11-23T14:02:18.535Z,2.63
2017-11-23T14:04:46.012Z,3.20
2017-11-23T14:07:13.514Z,3.10
2017-11-23T14:09:41.978Z,2.70
2017-11-23T14:12:10.235Z,3.33
2017-11-23T14:14:37.719Z,3.00
2017-11-23T14:17:05.928Z,2.87
2017-11-23T14:19:33.424Z,5.40
2017-11-23T14:22:00.907Z,2.43
2017-11-23T14:24:29.196Z,3.20
2017-11-23T14:26:56.686Z,2.80
2017-11-23T14:29:24.205Z,2.33
2017-11-23T14:31:52.899Z,3.60
2017-11-23T14:34:20.391Z,3.10
2017-11-23T14:36:47.887Z,3.00
2017-11-23T14:39:16.675Z,3.50
2017-11-23T14:41:44.922Z,2.90
2017-11-23T14:44:12.428Z,3.57
2017-11-23T14:46:40.666Z,4.20
2017-11-23T14:49:08.176Z,2.87
2017-11-23T14:51:35.664Z,3.10
2017-11-23T14:54:03.162Z,3.23
2017-11-23T14:56:30.644Z,3.10
2017-11-23T14:58:58.150Z,3.27
2017-11-23T15:01:25.619Z,3.40
2017-11-23T15:03:53.878Z,2.90
2017-11-23T15:06:21.373Z,2.90
2017-11-23T15:08:49.632Z,2.83
2017-11-23T15:11:17.121Z,3.03
2017-11-23T15:13:45.377Z,3.03
2017-11-23T15:16:12.835Z,3.33
2017-11-23T15:18:40.338Z,2.50
2017-11-23T15:21:07.823Z,3.20
2017-11-23T15:23:35.312Z,3.40
2017-11-23T15:26:03.588Z,3.37
2017-11-23T15:28:31.850Z,3.50
2017-11-23T15:30:59.333Z,3.00
2017-11-23T15:33:27.584Z,2.87
2017-11-23T15:35:55.079Z,2.53
2017-11-23T15:38:22.555Z,2.83
2017-11-23T15:40:50.074Z,3.80
2017-11-23T15:43:18.305Z,3.83
2017-11-23T15:45:45.783Z,3.70
2017-11-23T15:48:13.321Z,3.17
2017-11-23T15:50:40.817Z,3.50
2017-11-23T15:53:08.289Z,5.00
2017-11-23T15:55:36.547Z,4.10
2017-11-23T15:58:04.800Z,3.93
2017-11-23T16:00:32.317Z,5.40
2017-11-23T16:02:59.801Z,4.30
2017-11-23T16:05:27.299Z,4.10
2017-11-23T16:07:54.780Z,4.80
2017-11-23T16:10:23.023Z,5.80
2017-11-23T16:12:50.488Z,4.67
2017-11-23T16:15:18.949Z,5.10
2017-11-23T16:17:46.434Z,6.20
2017-11-23T16:20:13.917Z,7.80
2017-11-23T16:22:41.442Z,7.20
2017-11-23T16:25:09.774Z,7.53
2017-11-23T16:27:37.262Z,10.47
2017-11-23T16:30:04.766Z,11.12
2017-11-23T16:32:32.243Z,12.10
2017-11-23T16:34:59.746Z,9.20
2017-11-23T16:37:32.898Z,9.37
2017-11-23T16:40:00.891Z,9.33
2017-11-23T16:42:29.163Z,8.60
2017-11-23T16:58:32.477Z,7.90
2017-11-23T17:01:05.656Z,7.83
2017-11-23T17:03:38.915Z,8.17
2017-11-23T17:06:13.368Z,7.93
2017-11-23T17:08:41.664Z,8.50
2017-11-23T17:11:15.689Z,9.00
2017-11-23T17:13:49.718Z,7.90
2017-11-23T17:16:37.968Z,7.87
2017-11-23T17:19:15.425Z,8.20
2017-11-23T17:21:43.712Z,7.40
2017-11-23T17:24:13.905Z,7.50
2017-11-23T17:26:42.021Z,8.13
2017-11-23T17:29:09.582Z,7.80
2017-11-23T17:31:37.059Z,6.60
2017-11-23T17:34:04.584Z,6.80
2017-11-23T17:36:32.860Z,5.97
2017-11-23T17:39:01.727Z,6.80
2017-11-23T17:41:29.219Z,7.00
2017-11-23T17:43:56.775Z,8.17
2017-11-23T17:46:25.057Z,8.50
2017-11-23T17:48:52.573Z,8.63
2017-11-23T17:51:20.061Z,9.60
2017-11-23T17:53:48.334Z,11.03
2017-11-23T17:56:16.600Z,10.97
2017-11-23T17:58:44.116Z,11.65
2017-11-23T18:01:11.611Z,12.60
2017-11-23T18:03:39.151Z,13.80
2017-11-23T18:06:06.625Z,12.70
2017-11-23T18:08:34.119Z,14.07
2017-11-23T18:11:01.587Z,15.00
2017-11-23T18:13:29.077Z,16.17
2017-11-23T18:15:56.568Z,14.40
2017-11-23T18:18:24.875Z,16.03
2017-11-23T18:20:52.404Z,12.57
2017-11-23T18:23:20.659Z,12.20
2017-11-23T18:25:48.151Z,10.80
2017-11-23T18:28:16.408Z,13.13
2017-11-23T18:30:44.712Z,11.53
2017-11-23T18:33:12.228Z,11.47
2017-11-23T18:35:39.724Z,9.60
2017-11-23T18:38:07.191Z,9.83
2017-11-23T18:40:34.708Z,9.37
2017-11-23T18:43:02.223Z,8.55
2017-11-23T18:45:29.742Z,9.97
2017-11-23T18:47:58.012Z,9.90
2017-11-23T18:50:27.043Z,11.73
2017-11-23T18:53:08.011Z,11.10
2017-11-23T18:55:35.552Z,12.00
2017-11-23T18:58:03.805Z,13.13
2017-11-23T19:00:31.370Z,11.23
2017-11-23T19:02:59.658Z,10.17
2017-11-23T19:05:27.931Z,10.00
2017-11-23T19:07:56.228Z,9.60
2017-11-23T19:10:23.784Z,10.87
2017-11-23T19:12:52.065Z,11.10
2017-11-23T19:15:20.350Z,9.90
2017-11-23T19:17:47.826Z,10.63
2017-11-23T19:20:15.366Z,8.70
2017-11-23T19:22:42.901Z,9.57
2017-11-23T19:25:11.163Z,7.70
2017-11-23T19:27:38.680Z,6.93
2017-11-23T19:30:06.206Z,7.17
2017-11-23T19:32:34.510Z,7.30
2017-11-23T19:35:03.582Z,6.82
2017-11-23T19:37:31.138Z,7.70
2017-11-23T19:39:59.423Z,7.70
2017-11-23T19:42:26.886Z,7.60
2017-11-23T19:44:54.456Z,8.63
2017-11-23T19:47:22.010Z,8.30
2017-11-23T19:49:49.531Z,8.30
2017-11-23T19:52:17.945Z,8.37
2017-11-23T19:54:45.464Z,9.90
2017-11-23T19:57:14.597Z,13.20
2017-11-23T19:59:42.124Z,12.60
2017-11-23T20:02:10.422Z,7.37
2017-11-23T20:04:37.959Z,7.00
2017-11-23T20:07:05.568Z,6.80
2017-11-23T20:09:33.113Z,6.20
2017-11-23T20:12:00.599Z,6.27
2017-11-23T20:14:28.115Z,5.87
2017-11-23T20:16:56.459Z,6.90
2017-11-23T20:19:23.981Z,6.00
2017-11-23T20:21:51.640Z,6.00
2017-11-23T20:24:19.181Z,6.10
2017-11-23T20:26:46.745Z,5.80
2017-11-23T20:29:14.273Z,5.93
2017-11-23T20:31:41.831Z,5.37
2017-11-23T20:34:09.302Z,6.83
2017-11-23T20:36:37.563Z,5.90
2017-11-23T20:39:05.805Z,6.07
2017-11-23T20:41:33.710Z,5.40
2017-11-23T20:44:01.231Z,5.20
2017-11-23T20:46:28.797Z,5.43
2017-11-23T20:48:56.312Z,6.67
2017-11-23T20:51:23.833Z,8.23
2017-11-23T20:53:52.301Z,6.17
2017-11-23T20:59:13.196Z,7.30
2017-11-23T21:01:40.744Z,8.33
2017-11-23T21:04:08.257Z,9.43
2017-11-23T21:06:35.767Z,9.17
2017-11-23T21:09:03.241Z,5.40
2017-11-23T21:11:30.751Z,5.40
2017-11-23T21:13:59.115Z,4.50
2017-11-23T21:16:26.683Z,5.40
2017-11-23T21:18:54.981Z,5.57
2017-11-23T21:21:39.763Z,5.50
2017-11-23T21:24:07.299Z,5.63
2017-11-23T21:26:34.825Z,5.53
2017-11-23T21:29:02.370Z,5.30
2017-11-23T21:31:29.836Z,5.10
2017-11-23T21:33:57.361Z,6.03
2017-11-23T21:36:24.872Z,7.20
2017-11-23T21:38:53.166Z,5.27
2017-11-23T21:41:20.698Z,5.83
2017-11-23T21:43:48.179Z,5.50
2017-11-23T21:46:15.685Z,6.00
2017-11-23T21:48:43.245Z,4.63
2017-11-23T21:51:10.782Z,5.47
2017-11-23T21:53:38.320Z,5.70
2017-11-23T21:56:06.545Z,4.90
2017-11-23T21:58:34.071Z,5.33
2017-11-23T22:01:01.607Z,5.10
2017-11-23T22:03:29.856Z,5.13
2017-11-23T22:05:58.104Z,5.13
2017-11-23T22:08:25.669Z,5.37
2017-11-23T22:10:53.176Z,5.43
2017-11-23T22:13:21.472Z,5.03
2017-11-23T22:15:48.982Z,5.40
2017-11-23T22:18:16.446Z,5.80
2017-11-23T22:20:43.973Z,5.47
2017-11-23T22:23:11.484Z,5.47
2017-11-23T22:25:39.726Z,5.80
2017-11-23T22:28:08.699Z,5.97
2017-11-23T22:30:39.595Z,5.43
2017-11-23T22:33:07.865Z,5.00
2017-11-23T22:35:36.160Z,5.77
2017-11-23T22:38:03.662Z,5.43
2017-11-23T22:40:31.127Z,5.23
2017-11-23T22:42:59.414Z,4.73
2017-11-23T22:45:26.910Z,4.67
2017-11-23T22:47:54.434Z,4.97
2017-11-23T22:50:21.958Z,4.80
2017-11-23T22:52:50.137Z,4.70
2017-11-23T22:55:17.661Z,5.00
2017-11-23T22:57:45.164Z,5.30
2017-11-23T23:00:12.680Z,4.73
2017-11-23T23:02:40.144Z,5.00
2017-11-23T23:05:07.733Z,5.70
2017-11-23T23:07:35.197Z,5.10
2017-11-23T23:10:02.700Z,4.60
2017-11-23T23:12:30.941Z,4.80
2017-11-23T23:14:58.553Z,4.70
2017-11-23T23:17:26.041Z,4.30
2017-11-23T23:19:53.585Z,4.97
2017-11-23T23:22:21.093Z,4.53
2017-11-23T23:24:48.574Z,4.10
2017-11-23T23:27:16.103Z,4.60
2017-11-23T23:29:43.598Z,4.63
2017-11-23T23:32:11.066Z,4.32
2017-11-23T23:34:38.556Z,4.80
2017-11-23T23:37:06.030Z,4.73
2017-11-23T23:39:33.533Z,4.90
2017-11-23T23:42:01.008Z,4.60
2017-11-23T23:44:28.477Z,5.27
2017-11-23T23:46:55.951Z,4.93
2017-11-23T23:49:23.418Z,4.57
2017-11-23T23:51:50.898Z,4.60
2017-11-23T23:54:19.153Z,4.30
2017-11-23T23:56:47.412Z,6.10
2017-11-23T23:59:14.876Z,4.40
